createdAt,value
2022-12-18T00:01:29.946Z,3.55
2022-12-18T00:03:57.298Z,3.20
2022-12-18T00:06:25.367Z,3.78
2022-12-18T00:08:53.237Z,4.00
2022-12-18T00:11:22.047Z,4.63
2022-12-18T00:13:50.856Z,5.13
2022-12-18T00:16:23.603Z,3.95
2022-12-18T00:18:52.326Z,4.50
2022-12-18T00:21:20.140Z,4.63
2022-12-18T00:23:48.561Z,4.78
2022-12-18T00:26:17.765Z,5.43
2022-12-18T00:28:45.284Z,7.30
2022-12-18T00:31:15.083Z,5.55
2022-12-18T00:33:42.656Z,6.03
2022-12-18T00:36:15.455Z,5.30
2022-12-18T00:38:42.774Z,6.28
2022-12-18T00:41:10.649Z,4.60
2022-12-18T00:43:38.855Z,5.40
2022-12-18T00:46:06.185Z,5.22
2022-12-18T00:48:33.727Z,6.03
2022-12-18T00:51:00.566Z,5.07
2022-12-18T00:53:27.326Z,4.95
2022-12-18T00:55:54.078Z,7.30
2022-12-18T00:58:20.836Z,5.97
2022-12-18T01:00:47.653Z,6.72
2022-12-18T01:03:15.431Z,5.63
2022-12-18T01:05:44.498Z,3.92
2022-12-18T01:08:12.094Z,5.05
2022-12-18T01:10:41.882Z,4.78
2022-12-18T01:13:08.656Z,5.13
2022-12-18T01:15:36.046Z,6.05
2022-12-18T01:18:02.954Z,4.88
2022-12-18T01:20:29.710Z,6.50
2022-12-18T01:22:56.470Z,4.93
2022-12-18T01:25:23.277Z,5.13
2022-12-18T01:27:51.203Z,5.60
2022-12-18T01:30:17.972Z,4.40
2022-12-18T01:32:45.795Z,4.90
2022-12-18T01:35:12.585Z,6.57
2022-12-18T01:37:39.354Z,6.13
2022-12-18T01:40:06.910Z,7.50
2022-12-18T01:42:34.189Z,6.75
2022-12-18T01:45:00.944Z,7.72
2022-12-18T01:47:40.914Z,9.57
2022-12-18T01:50:37.870Z,6.95
2022-12-18T01:53:11.690Z,7.10
2022-12-18T01:55:48.311Z,8.60
2022-12-18T01:58:15.449Z,7.80
2022-12-18T02:00:42.496Z,5.53
2022-12-18T02:03:09.789Z,8.65
2022-12-18T02:05:47.401Z,6.40
2022-12-18T02:08:23.437Z,5.82
2022-12-18T02:10:56.947Z,8.02
2022-12-18T02:13:53.672Z,8.48
2022-12-18T02:16:44.884Z,8.60
2022-12-18T02:19:34.830Z,10.55
2022-12-18T02:22:04.265Z,7.90
2022-12-18T02:24:42.697Z,6.47
2022-12-18T02:27:10.661Z,7.00
2022-12-18T02:29:58.220Z,7.07
2022-12-18T02:32:38.761Z,9.93
2022-12-18T02:35:07.796Z,8.10
2022-12-18T02:37:35.953Z,7.85
2022-12-18T02:40:06.669Z,8.25
2022-12-18T02:42:35.827Z,6.55
2022-12-18T02:45:05.531Z,8.55
2022-12-18T02:47:35.281Z,8.40
2022-12-18T02:50:39.372Z,6.78
2022-12-18T02:53:19.228Z,6.32
2022-12-18T02:55:46.934Z,9.43
2022-12-18T02:58:28.907Z,8.65
2022-12-18T03:01:24.108Z,10.88
2022-12-18T03:04:01.165Z,5.60
2022-12-18T03:06:31.737Z,9.55
2022-12-18T03:09:01.514Z,7.88
2022-12-18T03:11:50.968Z,6.72
2022-12-18T03:14:19.554Z,7.72
2022-12-18T03:16:51.103Z,8.82
2022-12-18T03:19:19.860Z,8.82
2022-12-18T03:21:57.605Z,9.00
2022-12-18T03:24:28.001Z,6.50
2022-12-18T03:26:58.790Z,6.53
2022-12-18T03:29:28.998Z,6.43
2022-12-18T03:32:04.064Z,6.03
2022-12-18T03:34:35.068Z,4.03
2022-12-18T03:37:04.626Z,5.03
2022-12-18T03:39:33.200Z,5.22
2022-12-18T03:42:26.621Z,3.67
2022-12-18T03:45:24.195Z,5.32
2022-12-18T03:47:56.951Z,5.93
2022-12-18T03:50:38.474Z,4.05
2022-12-18T03:53:12.528Z,6.30
2022-12-18T03:55:39.916Z,4.93
2022-12-18T03:58:08.945Z,5.32
2022-12-18T04:00:53.637Z,3.90
2022-12-18T04:05:54.220Z,4.75
2022-12-18T04:08:23.041Z,3.85
2022-12-18T04:11:00.757Z,3.45
2022-12-18T04:13:36.767Z,5.38
2022-12-18T04:16:07.804Z,5.53
2022-12-18T04:18:35.478Z,5.18
2022-12-18T04:21:03.528Z,4.78
2022-12-18T04:23:30.446Z,4.55
2022-12-18T04:25:59.064Z,5.18
2022-12-18T04:28:51.060Z,5.30
2022-12-18T04:31:17.963Z,5.40
2022-12-18T04:33:44.916Z,4.90
2022-12-18T04:36:13.818Z,5.45
2022-12-18T04:38:41.422Z,3.58
2022-12-18T04:41:15.159Z,4.90
2022-12-18T04:43:43.777Z,4.15
2022-12-18T04:46:10.920Z,5.63
2022-12-18T04:48:38.164Z,4.68
2022-12-18T04:51:06.068Z,4.63
2022-12-18T04:53:33.286Z,5.20
2022-12-18T04:56:13.945Z,5.03
2022-12-18T04:58:42.003Z,6.72
2022-12-18T05:01:09.314Z,6.45
2022-12-18T05:03:37.215Z,5.13
2022-12-18T05:06:05.051Z,8.90
2022-12-18T05:08:31.998Z,7.40
2022-12-18T05:11:07.839Z,6.18
2022-12-18T05:13:35.327Z,6.53
2022-12-18T05:16:02.567Z,6.65
2022-12-18T05:18:29.521Z,6.75
2022-12-18T05:20:56.340Z,7.68
2022-12-18T05:23:24.468Z,9.07
2022-12-18T05:25:56.305Z,7.20
2022-12-18T05:28:24.307Z,7.30
2022-12-18T05:30:52.268Z,11.00
2022-12-18T05:33:19.933Z,7.57
2022-12-18T05:35:54.757Z,7.50
2022-12-18T05:38:23.387Z,7.00
2022-12-18T05:40:51.521Z,5.82
2022-12-18T05:43:21.328Z,7.68
2022-12-18T05:45:49.180Z,8.00
2022-12-18T05:48:16.639Z,8.80
2022-12-18T05:50:48.174Z,7.95
2022-12-18T05:53:16.967Z,6.85
2022-12-18T05:55:44.753Z,6.00
2022-12-18T05:58:12.627Z,10.82
2022-12-18T06:00:41.040Z,10.20
2022-12-18T06:03:09.678Z,9.65
2022-12-18T06:05:38.279Z,8.65
2022-12-18T06:08:05.436Z,8.63
2022-12-18T06:10:32.367Z,9.20
2022-12-18T06:13:18.248Z,8.55
2022-12-18T06:15:45.000Z,10.52
2022-12-18T06:18:11.736Z,8.48
2022-12-18T06:20:40.700Z,8.10
2022-12-18T06:23:07.597Z,8.75
2022-12-18T06:25:34.369Z,8.90
2022-12-18T06:28:01.156Z,8.95
2022-12-18T06:30:27.898Z,9.60
2022-12-18T06:32:56.734Z,8.65
2022-12-18T06:35:24.167Z,7.05
2022-12-18T06:37:50.952Z,8.20
2022-12-18T06:40:18.099Z,9.82
2022-12-18T06:42:44.987Z,8.00
2022-12-18T06:45:12.619Z,7.32
2022-12-18T06:47:39.516Z,8.02
2022-12-18T06:50:06.919Z,5.43
2022-12-18T06:52:34.670Z,9.35
2022-12-18T06:55:01.874Z,6.70
2022-12-18T06:57:28.591Z,8.55
2022-12-18T06:59:55.461Z,8.00
2022-12-18T07:02:22.321Z,5.65
2022-12-18T07:04:52.290Z,6.22
2022-12-18T07:07:19.328Z,6.60
2022-12-18T07:09:46.085Z,9.48
2022-12-18T07:12:12.934Z,7.65
2022-12-18T07:14:39.875Z,7.43
2022-12-18T07:17:06.802Z,9.18
2022-12-18T07:19:34.087Z,6.50
2022-12-18T07:22:01.507Z,7.00
2022-12-18T07:24:29.468Z,9.38
2022-12-18T07:26:56.301Z,6.72
2022-12-18T07:29:23.121Z,9.90
2022-12-18T07:31:50.242Z,8.60
2022-12-18T07:34:17.239Z,7.97
2022-12-18T07:36:44.081Z,9.82
2022-12-18T07:39:12.729Z,6.95
2022-12-18T07:41:45.183Z,9.88
2022-12-18T07:44:16.153Z,5.63
2022-12-18T07:46:42.965Z,9.10
2022-12-18T07:49:09.692Z,8.65
2022-12-18T07:51:36.540Z,9.90
2022-12-18T07:54:03.404Z,9.00
2022-12-18T07:56:31.427Z,10.57
2022-12-18T07:58:59.312Z,8.23
2022-12-18T08:01:26.367Z,8.85
2022-12-18T08:03:53.331Z,8.88
2022-12-18T08:06:23.960Z,10.85
2022-12-18T08:08:55.446Z,7.38
2022-12-18T08:11:23.530Z,10.70
2022-12-18T08:13:50.281Z,14.90
2022-12-18T08:16:17.228Z,12.38
2022-12-18T08:18:44.107Z,13.15
2022-12-18T08:21:13.953Z,13.52
2022-12-18T08:23:43.229Z,11.18
2022-12-18T08:26:11.595Z,15.73
2022-12-18T08:28:38.478Z,12.57
2022-12-18T08:31:05.659Z,11.85
2022-12-18T08:33:33.588Z,15.07
2022-12-18T08:36:01.192Z,10.98
2022-12-18T08:38:28.382Z,14.48
2022-12-18T08:41:06.488Z,15.15
2022-12-18T08:43:51.875Z,12.18
2022-12-18T08:46:19.881Z,10.23
2022-12-18T08:48:47.035Z,12.68
2022-12-18T08:51:13.956Z,15.10
2022-12-18T08:53:41.151Z,14.93
2022-12-18T08:56:08.735Z,14.32
2022-12-18T08:58:35.552Z,14.15
2022-12-18T09:01:09.941Z,13.98
2022-12-18T09:03:37.498Z,14.60
2022-12-18T09:06:04.945Z,16.95
2022-12-18T09:08:31.729Z,19.48
2022-12-18T09:11:01.580Z,16.55
2022-12-18T09:13:28.565Z,17.90
2022-12-18T09:15:56.615Z,16.90
2022-12-18T09:18:24.943Z,17.48
2022-12-18T09:20:53.557Z,22.00
2022-12-18T09:23:20.908Z,19.50
2022-12-18T09:25:48.014Z,15.35
2022-12-18T09:28:18.875Z,16.80
2022-12-18T09:30:48.708Z,18.67
2022-12-18T09:33:16.374Z,18.88
2022-12-18T09:35:44.726Z,20.05
2022-12-18T09:38:18.963Z,18.92
2022-12-18T09:40:51.431Z,18.65
2022-12-18T09:43:25.802Z,19.35
2022-12-18T09:45:56.455Z,19.60
2022-12-18T09:48:29.399Z,19.02
2022-12-18T09:51:01.191Z,18.98
2022-12-18T09:53:29.570Z,19.95
2022-12-18T09:55:57.621Z,16.10
2022-12-18T09:58:41.219Z,21.20
2022-12-18T10:01:19.339Z,19.70
2022-12-18T10:03:46.226Z,19.50
2022-12-18T10:06:18.494Z,15.27
2022-12-18T10:08:52.810Z,12.93
2022-12-18T10:11:50.817Z,13.93
2022-12-18T10:14:42.642Z,14.13
2022-12-18T10:17:16.386Z,12.02
2022-12-18T10:20:19.806Z,14.50
2022-12-18T10:22:54.036Z,15.13
2022-12-18T10:25:20.875Z,14.02
2022-12-18T10:27:48.059Z,17.20
2022-12-18T10:30:17.360Z,15.55
2022-12-18T10:32:44.401Z,14.75
2022-12-18T10:35:18.950Z,17.63
2022-12-18T10:38:08.248Z,13.52
2022-12-18T10:40:48.683Z,17.40
2022-12-18T10:43:16.759Z,13.88
2022-12-18T10:46:03.108Z,14.77
2022-12-18T10:48:31.462Z,14.10
2022-12-18T10:51:14.020Z,15.07
2022-12-18T10:53:43.038Z,18.15
2022-12-18T10:56:09.810Z,20.83
2022-12-18T10:58:38.450Z,13.57
2022-12-18T11:01:14.310Z,13.98
2022-12-18T11:03:45.413Z,14.07
2022-12-18T11:06:12.145Z,10.80
2022-12-18T11:08:40.088Z,14.27
2022-12-18T11:11:17.320Z,13.65
2022-12-18T11:14:13.622Z,14.52
2022-12-18T11:17:25.008Z,12.00
2022-12-18T11:19:35.833Z,12.27
2022-12-18T11:22:05.247Z,14.80
2022-12-18T11:24:36.775Z,12.77
2022-12-18T11:27:05.724Z,9.00
2022-12-18T11:32:16.098Z,11.05
2022-12-18T11:34:49.425Z,10.48
2022-12-18T11:37:20.195Z,12.27
2022-12-18T11:39:51.684Z,13.50
2022-12-18T11:42:22.830Z,10.93
2022-12-18T11:44:53.002Z,12.10
2022-12-18T11:47:26.870Z,13.82
2022-12-18T11:49:54.179Z,11.73
2022-12-18T11:52:25.171Z,10.48
2022-12-18T11:54:53.980Z,10.45
2022-12-18T11:57:40.815Z,9.98
2022-12-18T12:00:16.019Z,9.40
2022-12-18T12:02:57.950Z,11.02
2022-12-18T12:05:43.155Z,13.20
2022-12-18T12:08:12.909Z,12.00
2022-12-18T12:10:46.551Z,11.40
2022-12-18T12:13:48.063Z,9.05
2022-12-18T12:16:42.952Z,10.98
2022-12-18T12:19:28.097Z,15.50
2022-12-18T12:22:03.533Z,12.52
2022-12-18T12:27:17.250Z,10.30
2022-12-18T12:29:52.186Z,11.75
2022-12-18T12:32:37.105Z,12.23
2022-12-18T12:35:15.603Z,11.80
2022-12-18T12:37:59.072Z,10.85
2022-12-18T12:43:21.098Z,12.82
2022-12-18T12:46:10.993Z,11.93
2022-12-18T12:49:05.836Z,10.90
2022-12-18T12:51:38.845Z,12.82
2022-12-18T12:54:19.101Z,13.27
2022-12-18T12:57:10.295Z,13.25
2022-12-18T12:59:41.163Z,14.70
2022-12-18T13:02:37.071Z,13.02
2022-12-18T13:05:04.629Z,11.95
2022-12-18T13:07:48.731Z,14.10
2022-12-18T13:10:20.848Z,12.55
2022-12-18T13:13:00.066Z,14.15
2022-12-18T13:15:40.868Z,12.63
2022-12-18T13:18:10.317Z,13.27
2022-12-18T13:21:05.490Z,13.10
2022-12-18T13:23:35.316Z,15.63
2022-12-18T13:26:11.594Z,13.82
2022-12-18T13:28:47.935Z,14.82
2022-12-18T13:31:16.573Z,13.10
2022-12-18T13:36:34.585Z,15.15
2022-12-18T13:39:19.707Z,14.27
2022-12-18T13:41:55.486Z,12.93
2022-12-18T13:44:22.502Z,14.85
2022-12-18T13:46:51.696Z,12.68
2022-12-18T13:49:24.620Z,15.65
2022-12-18T13:51:53.864Z,15.07
2022-12-18T13:54:43.850Z,11.20
2022-12-18T13:57:29.055Z,14.88
2022-12-18T13:59:56.903Z,14.13
2022-12-18T14:02:26.341Z,13.90
2022-12-18T14:04:54.051Z,13.77
2022-12-18T14:07:24.139Z,14.00
2022-12-18T14:10:12.098Z,15.05
2022-12-18T14:13:00.888Z,13.27
2022-12-18T14:15:54.836Z,13.05
2022-12-18T14:18:22.161Z,14.35
2022-12-18T14:20:52.840Z,17.35
2022-12-18T14:23:33.784Z,16.20
2022-12-18T14:26:06.257Z,16.10
2022-12-18T14:28:33.290Z,15.02
2022-12-18T14:31:00.285Z,15.32
2022-12-18T14:33:28.609Z,12.80
2022-12-18T14:36:01.672Z,18.40
2022-12-18T14:38:39.583Z,13.45
2022-12-18T14:41:14.487Z,14.52
2022-12-18T14:43:44.255Z,15.18
2022-12-18T14:46:37.022Z,13.65
2022-12-18T14:49:06.902Z,12.30
2022-12-18T14:51:39.709Z,12.60
2022-12-18T14:54:16.329Z,15.75
2022-12-18T14:57:04.455Z,12.45
2022-12-18T15:02:12.510Z,13.73
2022-12-18T15:04:41.713Z,15.80
2022-12-18T15:07:19.592Z,14.15
2022-12-18T15:12:38.498Z,15.52
2022-12-18T15:15:06.667Z,15.10
2022-12-18T15:17:33.519Z,17.90
2022-12-18T15:20:03.727Z,15.70
2022-12-18T15:22:33.826Z,13.73
2022-12-18T15:25:01.199Z,15.80
2022-12-18T15:27:39.084Z,15.32
2022-12-18T15:30:09.033Z,14.45
2022-12-18T15:32:37.327Z,14.52
2022-12-18T15:35:25.045Z,14.73
2022-12-18T15:37:52.797Z,12.60
2022-12-18T15:40:25.022Z,13.85
2022-12-18T15:43:13.237Z,10.18
2022-12-18T15:45:40.146Z,10.18
2022-12-18T15:48:21.917Z,12.68
2022-12-18T15:53:15.556Z,9.30
2022-12-18T15:56:01.331Z,12.55
2022-12-18T15:58:28.237Z,11.88
2022-12-18T16:00:57.152Z,12.73
2022-12-18T16:05:51.418Z,11.57
2022-12-18T16:08:18.238Z,12.63
2022-12-18T16:10:45.002Z,12.27
2022-12-18T16:13:13.179Z,13.35
2022-12-18T16:15:40.001Z,13.75
2022-12-18T16:18:06.804Z,11.77
2022-12-18T16:20:33.636Z,12.02
2022-12-18T16:23:00.473Z,11.48
2022-12-18T16:25:29.675Z,10.32
2022-12-18T16:27:57.097Z,10.88
2022-12-18T16:30:28.238Z,13.23
2022-12-18T16:32:56.297Z,11.23
2022-12-18T16:35:23.890Z,10.63
2022-12-18T16:37:50.717Z,8.88
2022-12-18T16:40:18.224Z,10.15
2022-12-18T16:42:46.145Z,9.27
2022-12-18T16:45:15.629Z,9.02
2022-12-18T16:47:42.524Z,9.48
2022-12-18T16:50:10.164Z,10.55
2022-12-18T16:52:37.065Z,15.95
2022-12-18T16:55:04.315Z,10.35
2022-12-18T16:57:31.180Z,11.73
2022-12-18T17:00:04.439Z,12.45
2022-12-18T17:02:32.596Z,11.30
2022-12-18T17:04:59.829Z,16.08
2022-12-18T17:07:28.331Z,7.20
2022-12-18T17:09:55.849Z,8.18
2022-12-18T17:12:23.067Z,12.13
2022-12-18T17:14:49.953Z,8.65
2022-12-18T17:17:22.582Z,7.88
2022-12-18T17:19:51.901Z,13.25
2022-12-18T17:22:19.645Z,9.85
2022-12-18T17:24:47.138Z,10.18
2022-12-18T17:27:14.125Z,13.02
2022-12-18T17:29:46.812Z,11.18
2022-12-18T17:32:15.598Z,10.00
2022-12-18T17:34:42.308Z,8.43
2022-12-18T17:37:09.485Z,12.63
2022-12-18T17:39:36.531Z,11.85
2022-12-18T17:42:03.935Z,8.35
2022-12-18T17:44:31.974Z,10.30
2022-12-18T17:46:58.873Z,13.02
2022-12-18T17:49:25.728Z,13.88
2022-12-18T17:51:52.647Z,12.93
2022-12-18T17:54:19.739Z,12.15
2022-12-18T17:56:46.500Z,10.82
2022-12-18T17:59:13.246Z,11.27
2022-12-18T18:01:44.482Z,12.70
2022-12-18T18:04:12.696Z,12.30
2022-12-18T18:06:39.695Z,12.18
2022-12-18T18:09:13.420Z,11.63
2022-12-18T18:12:02.703Z,11.38
2022-12-18T18:14:29.897Z,11.70
2022-12-18T18:16:56.879Z,11.98
2022-12-18T18:19:25.992Z,11.10
2022-12-18T18:21:54.617Z,13.57
2022-12-18T18:24:23.652Z,8.98
2022-12-18T18:26:50.903Z,10.07
2022-12-18T18:29:20.894Z,12.90
2022-12-18T18:31:48.564Z,11.68
2022-12-18T18:34:23.018Z,11.50
2022-12-18T18:36:49.836Z,11.43
2022-12-18T18:39:16.704Z,11.75
2022-12-18T18:41:47.179Z,13.40
2022-12-18T18:44:15.124Z,12.55
2022-12-18T18:46:41.969Z,13.20
2022-12-18T18:49:09.524Z,12.20
2022-12-18T18:51:36.254Z,13.02
2022-12-18T18:54:03.111Z,11.90
2022-12-18T18:59:18.438Z,10.98
2022-12-18T19:01:45.551Z,11.15
2022-12-18T19:04:12.513Z,10.48
2022-12-18T19:06:39.423Z,15.75
2022-12-18T19:09:06.763Z,14.30
2022-12-18T19:11:52.076Z,10.60
2022-12-18T19:14:18.958Z,15.68
2022-12-18T19:16:45.868Z,15.30
2022-12-18T19:19:13.335Z,11.27
2022-12-18T19:21:40.845Z,13.18
2022-12-18T19:24:08.034Z,11.98
2022-12-18T19:26:37.754Z,10.70
2022-12-18T19:29:09.112Z,12.05
2022-12-18T19:31:37.313Z,14.40
2022-12-18T19:34:06.757Z,12.07
2022-12-18T19:36:35.319Z,14.13
2022-12-18T19:39:03.033Z,12.60
2022-12-18T19:41:31.600Z,14.35
2022-12-18T19:44:02.241Z,12.20
2022-12-18T19:46:35.049Z,13.02
2022-12-18T19:49:02.158Z,16.05
2022-12-18T19:51:30.914Z,15.57
2022-12-18T19:54:00.511Z,13.23
2022-12-18T19:56:31.035Z,13.30
2022-12-18T19:58:58.253Z,11.80
2022-12-18T20:01:26.639Z,13.82
2022-12-18T20:03:54.534Z,11.45
2022-12-18T20:09:00.640Z,11.32
2022-12-18T20:11:29.883Z,11.30
2022-12-18T20:13:57.274Z,14.43
2022-12-18T20:16:24.117Z,13.30
2022-12-18T20:18:50.964Z,15.63
2022-12-18T20:21:19.207Z,13.10
2022-12-18T20:23:46.146Z,16.98
2022-12-18T20:26:13.114Z,15.85
2022-12-18T20:28:40.515Z,14.13
2022-12-18T20:31:13.402Z,13.35
2022-12-18T20:33:42.178Z,11.70
2022-12-18T20:36:13.708Z,13.50
2022-12-18T20:38:41.399Z,11.60
2022-12-18T20:41:16.447Z,15.20
2022-12-18T20:43:44.300Z,14.60
2022-12-18T20:46:13.366Z,13.27
2022-12-18T20:48:40.557Z,14.05
2022-12-18T20:51:10.298Z,12.98
2022-12-18T20:53:37.728Z,14.15
2022-12-18T20:56:09.707Z,13.18
2022-12-18T20:58:36.585Z,11.45
2022-12-18T21:01:20.384Z,12.25
2022-12-18T21:03:47.785Z,13.73
2022-12-18T21:06:15.797Z,13.10
2022-12-18T21:08:43.205Z,13.40
2022-12-18T21:11:40.876Z,13.70
2022-12-18T21:14:13.866Z,13.55
2022-12-18T21:16:40.818Z,12.38
2022-12-18T21:19:07.631Z,14.18
2022-12-18T21:21:35.867Z,16.08
2022-12-18T21:24:06.720Z,11.48
2022-12-18T21:26:41.851Z,12.25
2022-12-18T21:29:22.796Z,15.07
2022-12-18T21:31:50.854Z,10.90
2022-12-18T21:34:26.503Z,12.93
2022-12-18T21:36:54.064Z,12.40
2022-12-18T21:39:21.742Z,13.43
2022-12-18T21:42:08.432Z,13.07
2022-12-18T21:44:41.726Z,13.00
2022-12-18T21:47:20.913Z,15.13
2022-12-18T21:49:51.954Z,15.45
2022-12-18T21:52:18.812Z,11.35
2022-12-18T21:54:45.566Z,13.05
2022-12-18T21:57:13.554Z,12.95
2022-12-18T21:59:42.607Z,13.02
2022-12-18T22:02:16.608Z,15.93
2022-12-18T22:04:44.581Z,14.80
2022-12-18T22:07:12.153Z,12.05
2022-12-18T22:09:39.413Z,12.73
2022-12-18T22:12:06.857Z,16.13
2022-12-18T22:14:33.627Z,14.88
2022-12-18T22:17:01.216Z,14.60
2022-12-18T22:19:29.304Z,15.90
2022-12-18T22:21:56.140Z,14.65
2022-12-18T22:24:25.055Z,16.90
2022-12-18T22:26:58.609Z,10.30
2022-12-18T22:29:47.752Z,16.02
2022-12-18T22:32:30.490Z,14.68
2022-12-18T22:35:05.851Z,13.18
2022-12-18T22:37:34.307Z,12.57
2022-12-18T22:40:03.137Z,15.45
2022-12-18T22:42:31.086Z,12.43
2022-12-18T22:44:57.869Z,14.13
2022-12-18T22:47:29.371Z,14.52
2022-12-18T22:49:57.017Z,12.90
2022-12-18T22:52:24.826Z,12.20
2022-12-18T22:54:53.316Z,14.45
2022-12-18T22:57:21.716Z,15.18
2022-12-18T22:59:49.419Z,12.55
2022-12-18T23:02:17.714Z,15.13
2022-12-18T23:04:45.170Z,11.20
2022-12-18T23:07:12.041Z,14.98
2022-12-18T23:09:39.947Z,18.27
2022-12-18T23:12:07.047Z,14.25
2022-12-18T23:14:33.884Z,14.80
2022-12-18T23:17:00.673Z,14.70
2022-12-18T23:19:27.461Z,15.48
2022-12-18T23:21:54.867Z,16.42
2022-12-18T23:24:27.307Z,12.13
2022-12-18T23:26:55.602Z,19.08
2022-12-18T23:29:22.366Z,16.35
2022-12-18T23:31:49.174Z,15.05
2022-12-18T23:34:15.935Z,15.75
2022-12-18T23:36:46.285Z,14.60
2022-12-18T23:39:24.361Z,16.48
2022-12-18T23:42:00.715Z,16.60
2022-12-18T23:44:28.017Z,12.30
2022-12-18T23:46:55.533Z,13.45
2022-12-18T23:49:22.468Z,17.25
2022-12-18T23:51:49.552Z,13.70
2022-12-18T23:54:16.382Z,16.58
2022-12-18T23:56:43.328Z,11.93
2022-12-18T23:59:10.308Z,16.20
